sensor_id;sensor_type;location;lat;lon;timestamp;P1;durP1;ratioP1;P2;durP2;ratioP2
42364;SDS011;28498;54.400;18.566;2023-04-06T00:00:15;20.58;;;8.38;;
42364;SDS011;28498;54.400;18.566;2023-04-06T00:02:42;15.07;;;7.63;;
42364;SDS011;28498;54.400;18.566;2023-04-06T00:05:09;16.70;;;7.18;;
42364;SDS011;28498;54.400;18.566;2023-04-06T00:07:37;17.63;;;8.07;;
42364;SDS011;28498;54.400;18.566;2023-04-06T00:10:04;19.70;;;8.55;;
42364;SDS011;28498;54.400;18.566;2023-04-06T00:12:31;22.35;;;8.80;;
42364;SDS011;28498;54.400;18.566;2023-04-06T00:14:58;19.42;;;8.55;;
42364;SDS011;28498;54.400;18.566;2023-04-06T00:17:27;20.48;;;10.00;;
42364;SDS011;28498;54.400;18.566;2023-04-06T00:19:54;16.63;;;7.55;;
42364;SDS011;28498;54.400;18.566;2023-04-06T00:22:21;15.27;;;7.57;;
42364;SDS011;28498;54.400;18.566;2023-04-06T00:24:48;16.13;;;6.95;;
42364;SDS011;28498;54.400;18.566;2023-04-06T00:27:16;13.73;;;6.60;;
42364;SDS011;28498;54.400;18.566;2023-04-06T00:29:43;14.43;;;6.93;;
42364;SDS011;28498;54.400;18.566;2023-04-06T00:32:11;15.50;;;6.82;;
42364;SDS011;28498;54.400;18.566;2023-04-06T00:34:38;12.98;;;5.68;;
42364;SDS011;28498;54.400;18.566;2023-04-06T00:37:05;13.80;;;6.68;;
42364;SDS011;28498;54.400;18.566;2023-04-06T00:39:32;16.15;;;6.10;;
42364;SDS011;28498;54.400;18.566;2023-04-06T00:41:59;14.10;;;6.65;;
42364;SDS011;28498;54.400;18.566;2023-04-06T00:44:30;11.38;;;5.45;;
42364;SDS011;28498;54.400;18.566;2023-04-06T00:46:58;13.45;;;5.85;;
42364;SDS011;28498;54.400;18.566;2023-04-06T00:49:25;11.05;;;5.63;;
42364;SDS011;28498;54.400;18.566;2023-04-06T00:51:52;11.25;;;5.18;;
42364;SDS011;28498;54.400;18.566;2023-04-06T00:54:20;10.52;;;5.38;;
42364;SDS011;28498;54.400;18.566;2023-04-06T00:56:47;12.57;;;6.18;;
42364;SDS011;28498;54.400;18.566;2023-04-06T00:59:14;14.52;;;6.75;;
42364;SDS011;28498;54.400;18.566;2023-04-06T01:01:41;10.43;;;5.53;;
42364;SDS011;28498;54.400;18.566;2023-04-06T01:04:09;19.95;;;6.25;;
42364;SDS011;28498;54.400;18.566;2023-04-06T01:06:36;15.93;;;7.25;;
42364;SDS011;28498;54.400;18.566;2023-04-06T01:09:03;15.80;;;7.38;;
42364;SDS011;28498;54.400;18.566;2023-04-06T01:11:30;13.18;;;5.82;;
42364;SDS011;28498;54.400;18.566;2023-04-06T01:13:57;13.35;;;6.18;;
42364;SDS011;28498;54.400;18.566;2023-04-06T01:16:24;17.92;;;6.90;;
42364;SDS011;28498;54.400;18.566;2023-04-06T01:18:52;10.95;;;6.05;;
42364;SDS011;28498;54.400;18.566;2023-04-06T01:21:19;14.82;;;7.18;;
42364;SDS011;28498;54.400;18.566;2023-04-06T01:23:46;12.80;;;5.80;;
42364;SDS011;28498;54.400;18.566;2023-04-06T01:26:13;14.15;;;5.68;;
42364;SDS011;28498;54.400;18.566;2023-04-06T01:28:40;13.35;;;6.53;;
42364;SDS011;28498;54.400;18.566;2023-04-06T01:31:08;16.52;;;7.20;;
42364;SDS011;28498;54.400;18.566;2023-04-06T01:33:35;18.17;;;8.55;;
42364;SDS011;28498;54.400;18.566;2023-04-06T01:36:03;11.15;;;5.13;;
42364;SDS011;28498;54.400;18.566;2023-04-06T01:38:30;12.38;;;5.70;;
42364;SDS011;28498;54.400;18.566;2023-04-06T01:40:57;8.90;;;4.25;;
42364;SDS011;28498;54.400;18.566;2023-04-06T01:43:24;11.18;;;4.60;;
42364;SDS011;28498;54.400;18.566;2023-04-06T01:45:51;11.63;;;4.35;;
42364;SDS011;28498;54.400;18.566;2023-04-06T01:48:18;8.73;;;4.45;;
42364;SDS011;28498;54.400;18.566;2023-04-06T01:50:46;8.32;;;4.25;;
42364;SDS011;28498;54.400;18.566;2023-04-06T01:53:13;12.07;;;4.72;;
42364;SDS011;28498;54.400;18.566;2023-04-06T01:55:41;12.98;;;4.93;;
42364;SDS011;28498;54.400;18.566;2023-04-06T01:58:08;9.00;;;4.93;;
42364;SDS011;28498;54.400;18.566;2023-04-06T02:00:35;12.55;;;4.28;;
42364;SDS011;28498;54.400;18.566;2023-04-06T02:03:03;15.57;;;4.97;;
42364;SDS011;28498;54.400;18.566;2023-04-06T02:05:30;11.75;;;4.70;;
42364;SDS011;28498;54.400;18.566;2023-04-06T02:07:59;12.85;;;5.05;;
42364;SDS011;28498;54.400;18.566;2023-04-06T02:10:26;11.43;;;4.30;;
42364;SDS011;28498;54.400;18.566;2023-04-06T02:12:53;9.15;;;4.28;;
42364;SDS011;28498;54.400;18.566;2023-04-06T02:15:20;10.00;;;4.75;;
42364;SDS011;28498;54.400;18.566;2023-04-06T02:17:47;11.43;;;4.78;;
42364;SDS011;28498;54.400;18.566;2023-04-06T02:20:14;8.32;;;4.30;;
42364;SDS011;28498;54.400;18.566;2023-04-06T02:22:41;12.50;;;4.72;;
42364;SDS011;28498;54.400;18.566;2023-04-06T02:25:08;10.75;;;4.32;;
42364;SDS011;28498;54.400;18.566;2023-04-06T02:27:36;10.18;;;4.43;;
42364;SDS011;28498;54.400;18.566;2023-04-06T02:30:03;9.68;;;4.13;;
42364;SDS011;28498;54.400;18.566;2023-04-06T02:32:31;10.50;;;4.85;;
42364;SDS011;28498;54.400;18.566;2023-04-06T02:34:58;8.18;;;4.72;;
42364;SDS011;28498;54.400;18.566;2023-04-06T02:37:25;11.02;;;4.50;;
42364;SDS011;28498;54.400;18.566;2023-04-06T02:39:52;8.68;;;4.43;;
42364;SDS011;28498;54.400;18.566;2023-04-06T02:42:19;8.45;;;4.03;;
42364;SDS011;28498;54.400;18.566;2023-04-06T02:44:46;8.80;;;4.28;;
42364;SDS011;28498;54.400;18.566;2023-04-06T02:47:13;6.65;;;3.90;;
42364;SDS011;28498;54.400;18.566;2023-04-06T02:49:40;8.63;;;4.30;;
42364;SDS011;28498;54.400;18.566;2023-04-06T02:52:07;8.70;;;4.20;;
42364;SDS011;28498;54.400;18.566;2023-04-06T02:54:34;16.25;;;5.07;;
42364;SDS011;28498;54.400;18.566;2023-04-06T02:57:01;10.55;;;4.13;;
42364;SDS011;28498;54.400;18.566;2023-04-06T02:59:28;8.70;;;3.65;;
42364;SDS011;28498;54.400;18.566;2023-04-06T03:01:56;8.55;;;3.85;;
42364;SDS011;28498;54.400;18.566;2023-04-06T03:04:23;7.40;;;3.63;;
42364;SDS011;28498;54.400;18.566;2023-04-06T03:06:52;9.13;;;4.15;;
42364;SDS011;28498;54.400;18.566;2023-04-06T03:09:21;9.25;;;4.10;;
42364;SDS011;28498;54.400;18.566;2023-04-06T03:11:48;9.50;;;3.80;;
42364;SDS011;28498;54.400;18.566;2023-04-06T03:14:15;9.75;;;4.47;;
42364;SDS011;28498;54.400;18.566;2023-04-06T03:16:48;10.82;;;3.80;;
42364;SDS011;28498;54.400;18.566;2023-04-06T03:19:15;8.80;;;4.20;;
42364;SDS011;28498;54.400;18.566;2023-04-06T03:21:42;6.25;;;3.70;;
42364;SDS011;28498;54.400;18.566;2023-04-06T03:24:09;10.15;;;3.50;;
42364;SDS011;28498;54.400;18.566;2023-04-06T03:26:36;8.60;;;3.97;;
42364;SDS011;28498;54.400;18.566;2023-04-06T03:29:03;7.93;;;4.03;;
42364;SDS011;28498;54.400;18.566;2023-04-06T03:31:30;6.60;;;3.45;;
42364;SDS011;28498;54.400;18.566;2023-04-06T03:33:57;8.48;;;3.58;;
42364;SDS011;28498;54.400;18.566;2023-04-06T03:36:25;7.50;;;3.88;;
42364;SDS011;28498;54.400;18.566;2023-04-06T03:38:53;7.18;;;3.75;;
42364;SDS011;28498;54.400;18.566;2023-04-06T03:41:20;8.95;;;3.60;;
42364;SDS011;28498;54.400;18.566;2023-04-06T03:43:47;8.30;;;3.58;;
42364;SDS011;28498;54.400;18.566;2023-04-06T03:46:14;6.68;;;3.72;;
42364;SDS011;28498;54.400;18.566;2023-04-06T03:48:41;9.75;;;4.18;;
42364;SDS011;28498;54.400;18.566;2023-04-06T03:51:08;11.35;;;3.80;;
42364;SDS011;28498;54.400;18.566;2023-04-06T03:53:35;7.38;;;3.95;;
42364;SDS011;28498;54.400;18.566;2023-04-06T03:56:03;9.63;;;4.00;;
42364;SDS011;28498;54.400;18.566;2023-04-06T03:58:31;8.13;;;3.60;;
42364;SDS011;28498;54.400;18.566;2023-04-06T04:00:58;8.32;;;4.28;;
42364;SDS011;28498;54.400;18.566;2023-04-06T04:03:25;7.40;;;3.25;;
42364;SDS011;28498;54.400;18.566;2023-04-06T04:05:54;12.15;;;4.47;;
42364;SDS011;28498;54.400;18.566;2023-04-06T04:08:24;9.40;;;3.80;;
42364;SDS011;28498;54.400;18.566;2023-04-06T04:10:51;8.93;;;4.35;;
42364;SDS011;28498;54.400;18.566;2023-04-06T04:13:18;8.68;;;4.10;;
42364;SDS011;28498;54.400;18.566;2023-04-06T04:15:46;9.23;;;4.38;;
42364;SDS011;28498;54.400;18.566;2023-04-06T04:18:13;8.30;;;3.70;;
42364;SDS011;28498;54.400;18.566;2023-04-06T04:20:41;11.18;;;4.30;;
42364;SDS011;28498;54.400;18.566;2023-04-06T04:23:08;9.93;;;3.80;;
42364;SDS011;28498;54.400;18.566;2023-04-06T04:25:35;9.00;;;4.00;;
42364;SDS011;28498;54.400;18.566;2023-04-06T04:28:02;10.98;;;4.50;;
42364;SDS011;28498;54.400;18.566;2023-04-06T04:30:29;9.48;;;3.63;;
42364;SDS011;28498;54.400;18.566;2023-04-06T04:32:56;8.80;;;3.75;;
42364;SDS011;28498;54.400;18.566;2023-04-06T04:35:23;11.50;;;3.85;;
42364;SDS011;28498;54.400;18.566;2023-04-06T04:37:50;8.25;;;4.10;;
42364;SDS011;28498;54.400;18.566;2023-04-06T04:40:17;9.10;;;4.72;;
42364;SDS011;28498;54.400;18.566;2023-04-06T04:42:43;8.40;;;3.85;;
42364;SDS011;28498;54.400;18.566;2023-04-06T04:45:11;8.43;;;3.45;;
42364;SDS011;28498;54.400;18.566;2023-04-06T04:47:38;9.30;;;3.78;;
42364;SDS011;28498;54.400;18.566;2023-04-06T04:50:05;7.93;;;3.60;;
42364;SDS011;28498;54.400;18.566;2023-04-06T04:52:32;9.55;;;4.30;;
42364;SDS011;28498;54.400;18.566;2023-04-06T04:54:59;8.52;;;4.28;;
42364;SDS011;28498;54.400;18.566;2023-04-06T04:57:26;9.57;;;3.88;;
42364;SDS011;28498;54.400;18.566;2023-04-06T04:59:53;10.77;;;4.43;;
42364;SDS011;28498;54.400;18.566;2023-04-06T05:02:23;7.07;;;3.95;;
42364;SDS011;28498;54.400;18.566;2023-04-06T05:04:50;10.23;;;4.15;;
42364;SDS011;28498;54.400;18.566;2023-04-06T05:07:17;8.90;;;4.25;;
42364;SDS011;28498;54.400;18.566;2023-04-06T05:09:45;9.93;;;4.57;;
42364;SDS011;28498;54.400;18.566;2023-04-06T05:12:12;14.80;;;6.05;;
42364;SDS011;28498;54.400;18.566;2023-04-06T05:14:39;10.63;;;4.82;;
42364;SDS011;28498;54.400;18.566;2023-04-06T05:17:06;11.55;;;4.55;;
42364;SDS011;28498;54.400;18.566;2023-04-06T05:19:33;9.68;;;3.70;;
42364;SDS011;28498;54.400;18.566;2023-04-06T05:22:00;14.90;;;6.22;;
42364;SDS011;28498;54.400;18.566;2023-04-06T05:24:27;15.90;;;7.15;;
42364;SDS011;28498;54.400;18.566;2023-04-06T05:26:54;15.00;;;6.93;;
42364;SDS011;28498;54.400;18.566;2023-04-06T05:29:21;12.50;;;6.05;;
42364;SDS011;28498;54.400;18.566;2023-04-06T05:31:48;14.23;;;7.07;;
42364;SDS011;28498;54.400;18.566;2023-04-06T05:34:17;13.02;;;6.90;;
42364;SDS011;28498;54.400;18.566;2023-04-06T05:36:43;14.48;;;6.40;;
42364;SDS011;28498;54.400;18.566;2023-04-06T05:39:10;16.45;;;7.07;;
42364;SDS011;28498;54.400;18.566;2023-04-06T05:41:38;20.88;;;9.98;;
42364;SDS011;28498;54.400;18.566;2023-04-06T05:44:05;16.85;;;8.73;;
42364;SDS011;28498;54.400;18.566;2023-04-06T05:46:32;18.67;;;8.15;;
42364;SDS011;28498;54.400;18.566;2023-04-06T05:48:59;14.02;;;7.90;;
42364;SDS011;28498;54.400;18.566;2023-04-06T05:51:26;25.20;;;9.10;;
42364;SDS011;28498;54.400;18.566;2023-04-06T05:53:53;28.70;;;13.23;;
42364;SDS011;28498;54.400;18.566;2023-04-06T05:56:20;54.17;;;27.30;;
42364;SDS011;28498;54.400;18.566;2023-04-06T05:58:47;30.02;;;11.25;;
42364;SDS011;28498;54.400;18.566;2023-04-06T06:01:14;23.27;;;6.25;;
42364;SDS011;28498;54.400;18.566;2023-04-06T06:03:41;10.85;;;5.07;;
42364;SDS011;28498;54.400;18.566;2023-04-06T06:06:08;23.65;;;7.82;;
42364;SDS011;28498;54.400;18.566;2023-04-06T06:08:35;10.90;;;4.70;;
42364;SDS011;28498;54.400;18.566;2023-04-06T06:11:02;11.40;;;4.13;;
42364;SDS011;28498;54.400;18.566;2023-04-06T06:13:29;13.23;;;6.13;;
42364;SDS011;28498;54.400;18.566;2023-04-06T06:15:56;10.50;;;4.90;;
42364;SDS011;28498;54.400;18.566;2023-04-06T06:18:23;8.77;;;4.35;;
42364;SDS011;28498;54.400;18.566;2023-04-06T06:20:51;9.80;;;5.10;;
42364;SDS011;28498;54.400;18.566;2023-04-06T06:23:18;11.13;;;5.63;;
42364;SDS011;28498;54.400;18.566;2023-04-06T06:25:44;13.00;;;5.32;;
42364;SDS011;28498;54.400;18.566;2023-04-06T06:28:11;10.13;;;5.00;;
42364;SDS011;28498;54.400;18.566;2023-04-06T06:30:38;16.80;;;8.68;;
42364;SDS011;28498;54.400;18.566;2023-04-06T06:33:05;22.15;;;10.63;;
42364;SDS011;28498;54.400;18.566;2023-04-06T06:35:33;8.70;;;4.30;;
42364;SDS011;28498;54.400;18.566;2023-04-06T06:38:00;9.88;;;4.20;;
42364;SDS011;28498;54.400;18.566;2023-04-06T06:40:27;11.50;;;5.78;;
42364;SDS011;28498;54.400;18.566;2023-04-06T06:42:54;13.70;;;6.20;;
42364;SDS011;28498;54.400;18.566;2023-04-06T06:45:21;10.93;;;5.32;;
42364;SDS011;28498;54.400;18.566;2023-04-06T06:47:48;18.75;;;7.32;;
42364;SDS011;28498;54.400;18.566;2023-04-06T06:50:18;9.88;;;4.28;;
42364;SDS011;28498;54.400;18.566;2023-04-06T06:52:45;12.98;;;4.97;;
42364;SDS011;28498;54.400;18.566;2023-04-06T06:55:12;13.02;;;6.22;;
42364;SDS011;28498;54.400;18.566;2023-04-06T06:57:39;10.48;;;4.43;;
42364;SDS011;28498;54.400;18.566;2023-04-06T07:00:09;13.65;;;6.25;;
42364;SDS011;28498;54.400;18.566;2023-04-06T07:02:38;9.82;;;4.88;;
42364;SDS011;28498;54.400;18.566;2023-04-06T07:05:06;12.35;;;4.40;;
42364;SDS011;28498;54.400;18.566;2023-04-06T07:07:49;11.02;;;5.85;;
42364;SDS011;28498;54.400;18.566;2023-04-06T07:10:16;8.93;;;4.22;;
42364;SDS011;28498;54.400;18.566;2023-04-06T07:12:43;9.27;;;3.72;;
42364;SDS011;28498;54.400;18.566;2023-04-06T07:15:10;9.70;;;3.97;;
42364;SDS011;28498;54.400;18.566;2023-04-06T07:17:37;11.15;;;3.78;;
42364;SDS011;28498;54.400;18.566;2023-04-06T07:20:04;10.45;;;4.38;;
42364;SDS011;28498;54.400;18.566;2023-04-06T07:22:32;33.63;;;13.07;;
42364;SDS011;28498;54.400;18.566;2023-04-06T07:24:59;13.07;;;7.72;;
42364;SDS011;28498;54.400;18.566;2023-04-06T07:27:26;13.75;;;8.30;;
42364;SDS011;28498;54.400;18.566;2023-04-06T07:29:52;10.73;;;6.05;;
42364;SDS011;28498;54.400;18.566;2023-04-06T07:32:19;12.65;;;5.38;;
42364;SDS011;28498;54.400;18.566;2023-04-06T07:34:46;9.90;;;3.88;;
42364;SDS011;28498;54.400;18.566;2023-04-06T07:37:14;13.52;;;6.35;;
42364;SDS011;28498;54.400;18.566;2023-04-06T07:39:41;13.80;;;6.35;;
42364;SDS011;28498;54.400;18.566;2023-04-06T07:42:08;10.30;;;4.70;;
42364;SDS011;28498;54.400;18.566;2023-04-06T07:44:35;16.95;;;5.57;;
42364;SDS011;28498;54.400;18.566;2023-04-06T07:47:02;9.40;;;4.68;;
42364;SDS011;28498;54.400;18.566;2023-04-06T07:49:29;10.93;;;6.07;;
42364;SDS011;28498;54.400;18.566;2023-04-06T07:51:56;13.10;;;4.85;;
42364;SDS011;28498;54.400;18.566;2023-04-06T07:54:23;8.23;;;4.32;;
42364;SDS011;28498;54.400;18.566;2023-04-06T07:56:50;11.15;;;5.53;;
42364;SDS011;28498;54.400;18.566;2023-04-06T07:59:17;7.85;;;4.40;;
42364;SDS011;28498;54.400;18.566;2023-04-06T08:01:44;7.68;;;3.45;;
42364;SDS011;28498;54.400;18.566;2023-04-06T08:04:11;7.50;;;4.13;;
42364;SDS011;28498;54.400;18.566;2023-04-06T08:06:38;8.38;;;4.13;;
42364;SDS011;28498;54.400;18.566;2023-04-06T08:09:07;11.23;;;4.85;;
42364;SDS011;28498;54.400;18.566;2023-04-06T08:11:34;6.47;;;4.10;;
42364;SDS011;28498;54.400;18.566;2023-04-06T08:14:01;5.05;;;2.60;;
42364;SDS011;28498;54.400;18.566;2023-04-06T08:16:28;6.43;;;2.88;;
42364;SDS011;28498;54.400;18.566;2023-04-06T08:18:55;6.38;;;2.95;;
42364;SDS011;28498;54.400;18.566;2023-04-06T08:21:22;6.43;;;2.92;;
42364;SDS011;28498;54.400;18.566;2023-04-06T08:23:49;4.68;;;2.70;;
42364;SDS011;28498;54.400;18.566;2023-04-06T08:26:16;8.98;;;3.35;;
42364;SDS011;28498;54.400;18.566;2023-04-06T08:28:43;6.40;;;2.97;;
42364;SDS011;28498;54.400;18.566;2023-04-06T08:31:12;5.15;;;2.20;;
42364;SDS011;28498;54.400;18.566;2023-04-06T08:33:39;6.53;;;2.90;;
42364;SDS011;28498;54.400;18.566;2023-04-06T08:36:07;10.10;;;4.03;;
42364;SDS011;28498;54.400;18.566;2023-04-06T08:38:38;5.30;;;2.78;;
42364;SDS011;28498;54.400;18.566;2023-04-06T08:41:06;5.85;;;2.78;;
42364;SDS011;28498;54.400;18.566;2023-04-06T08:43:36;6.05;;;2.10;;
42364;SDS011;28498;54.400;18.566;2023-04-06T08:46:25;5.63;;;2.60;;
42364;SDS011;28498;54.400;18.566;2023-04-06T08:48:57;6.15;;;2.80;;
42364;SDS011;28498;54.400;18.566;2023-04-06T08:51:26;4.43;;;2.25;;
42364;SDS011;28498;54.400;18.566;2023-04-06T08:53:54;7.80;;;3.15;;
42364;SDS011;28498;54.400;18.566;2023-04-06T08:56:23;4.97;;;2.40;;
42364;SDS011;28498;54.400;18.566;2023-04-06T08:58:52;5.65;;;3.33;;
42364;SDS011;28498;54.400;18.566;2023-04-06T09:01:22;8.57;;;3.97;;
42364;SDS011;28498;54.400;18.566;2023-04-06T09:03:55;7.63;;;3.03;;
42364;SDS011;28498;54.400;18.566;2023-04-06T09:06:24;7.10;;;3.70;;
42364;SDS011;28498;54.400;18.566;2023-04-06T09:08:57;5.65;;;2.20;;
42364;SDS011;28498;54.400;18.566;2023-04-06T09:11:24;5.20;;;2.80;;
42364;SDS011;28498;54.400;18.566;2023-04-06T09:13:52;5.07;;;2.20;;
42364;SDS011;28498;54.400;18.566;2023-04-06T09:16:22;5.53;;;2.80;;
42364;SDS011;28498;54.400;18.566;2023-04-06T09:18:50;6.40;;;2.88;;
42364;SDS011;28498;54.400;18.566;2023-04-06T09:21:17;5.60;;;2.30;;
42364;SDS011;28498;54.400;18.566;2023-04-06T09:23:59;7.72;;;2.65;;
42364;SDS011;28498;54.400;18.566;2023-04-06T09:26:27;4.43;;;2.47;;
42364;SDS011;28498;54.400;18.566;2023-04-06T09:28:55;4.78;;;1.83;;
42364;SDS011;28498;54.400;18.566;2023-04-06T09:31:27;10.02;;;2.75;;
42364;SDS011;28498;54.400;18.566;2023-04-06T09:33:56;4.22;;;1.80;;
42364;SDS011;28498;54.400;18.566;2023-04-06T09:36:30;3.85;;;1.85;;
42364;SDS011;28498;54.400;18.566;2023-04-06T09:39:02;3.53;;;1.88;;
42364;SDS011;28498;54.400;18.566;2023-04-06T09:41:31;6.53;;;2.70;;
42364;SDS011;28498;54.400;18.566;2023-04-06T09:44:03;5.47;;;3.10;;
42364;SDS011;28498;54.400;18.566;2023-04-06T09:52:52;6.00;;;2.67;;
42364;SDS011;28498;54.400;18.566;2023-04-06T09:55:23;5.28;;;3.22;;
42364;SDS011;28498;54.400;18.566;2023-04-06T10:00:35;4.85;;;2.10;;
42364;SDS011;28498;54.400;18.566;2023-04-06T10:03:32;5.18;;;2.40;;
42364;SDS011;28498;54.400;18.566;2023-04-06T10:06:16;4.65;;;1.88;;
42364;SDS011;28498;54.400;18.566;2023-04-06T10:08:48;6.03;;;2.85;;
42364;SDS011;28498;54.400;18.566;2023-04-06T10:11:17;2.97;;;1.30;;
42364;SDS011;28498;54.400;18.566;2023-04-06T10:13:45;2.53;;;1.30;;
42364;SDS011;28498;54.400;18.566;2023-04-06T10:16:15;5.15;;;1.40;;
42364;SDS011;28498;54.400;18.566;2023-04-06T10:18:48;3.25;;;1.45;;
42364;SDS011;28498;54.400;18.566;2023-04-06T10:21:23;8.82;;;1.80;;
42364;SDS011;28498;54.400;18.566;2023-04-06T10:23:59;3.63;;;1.30;;
42364;SDS011;28498;54.400;18.566;2023-04-06T10:26:28;3.90;;;1.20;;
42364;SDS011;28498;54.400;18.566;2023-04-06T10:28:55;7.22;;;1.23;;
42364;SDS011;28498;54.400;18.566;2023-04-06T10:31:28;5.97;;;1.47;;
42364;SDS011;28498;54.400;18.566;2023-04-06T10:33:56;3.33;;;1.00;;
42364;SDS011;28498;54.400;18.566;2023-04-06T10:36:26;3.40;;;1.40;;
42364;SDS011;28498;54.400;18.566;2023-04-06T10:38:59;2.72;;;1.30;;
42364;SDS011;28498;54.400;18.566;2023-04-06T10:41:34;3.70;;;1.30;;
42364;SDS011;28498;54.400;18.566;2023-04-06T10:44:02;4.72;;;1.80;;
42364;SDS011;28498;54.400;18.566;2023-04-06T10:46:30;3.00;;;1.30;;
42364;SDS011;28498;54.400;18.566;2023-04-06T10:49:09;3.70;;;1.10;;
42364;SDS011;28498;54.400;18.566;2023-04-06T10:51:38;2.90;;;1.45;;
42364;SDS011;28498;54.400;18.566;2023-04-06T10:54:06;1.92;;;1.13;;
42364;SDS011;28498;54.400;18.566;2023-04-06T10:56:36;3.53;;;1.83;;
42364;SDS011;28498;54.400;18.566;2023-04-06T10:59:05;3.50;;;1.60;;
42364;SDS011;28498;54.400;18.566;2023-04-06T11:01:32;3.45;;;1.45;;
42364;SDS011;28498;54.400;18.566;2023-04-06T11:03:59;3.70;;;2.20;;
42364;SDS011;28498;54.400;18.566;2023-04-06T11:06:28;4.82;;;1.85;;
42364;SDS011;28498;54.400;18.566;2023-04-06T11:08:57;2.92;;;1.20;;
42364;SDS011;28498;54.400;18.566;2023-04-06T11:11:25;5.25;;;1.88;;
42364;SDS011;28498;54.400;18.566;2023-04-06T11:13:54;3.35;;;1.40;;
42364;SDS011;28498;54.400;18.566;2023-04-06T11:16:26;4.35;;;1.40;;
42364;SDS011;28498;54.400;18.566;2023-04-06T11:19:00;2.50;;;1.00;;
42364;SDS011;28498;54.400;18.566;2023-04-06T11:21:35;4.63;;;1.90;;
42364;SDS011;28498;54.400;18.566;2023-04-06T11:24:15;4.05;;;1.27;;
42364;SDS011;28498;54.400;18.566;2023-04-06T11:26:46;4.18;;;2.10;;
42364;SDS011;28498;54.400;18.566;2023-04-06T11:29:18;9.18;;;3.28;;
42364;SDS011;28498;54.400;18.566;2023-04-06T11:31:47;6.70;;;2.72;;
42364;SDS011;28498;54.400;18.566;2023-04-06T11:34:22;3.67;;;1.40;;
42364;SDS011;28498;54.400;18.566;2023-04-06T11:36:57;1.88;;;1.00;;
42364;SDS011;28498;54.400;18.566;2023-04-06T11:39:26;3.17;;;1.67;;
42364;SDS011;28498;54.400;18.566;2023-04-06T11:41:57;2.08;;;1.10;;
42364;SDS011;28498;54.400;18.566;2023-04-06T11:44:34;3.20;;;1.20;;
42364;SDS011;28498;54.400;18.566;2023-04-06T11:47:12;3.53;;;1.48;;
42364;SDS011;28498;54.400;18.566;2023-04-06T11:49:40;4.82;;;1.98;;
42364;SDS011;28498;54.400;18.566;2023-04-06T11:52:42;4.93;;;2.65;;
42364;SDS011;28498;54.400;18.566;2023-04-06T11:55:14;4.20;;;1.42;;
42364;SDS011;28498;54.400;18.566;2023-04-06T11:57:43;3.92;;;1.90;;
42364;SDS011;28498;54.400;18.566;2023-04-06T12:00:11;5.55;;;1.70;;
42364;SDS011;28498;54.400;18.566;2023-04-06T12:02:39;3.85;;;2.00;;
42364;SDS011;28498;54.400;18.566;2023-04-06T12:05:06;5.32;;;2.40;;
42364;SDS011;28498;54.400;18.566;2023-04-06T12:07:34;4.00;;;2.00;;
42364;SDS011;28498;54.400;18.566;2023-04-06T12:10:02;8.48;;;2.08;;
42364;SDS011;28498;54.400;18.566;2023-04-06T12:12:30;3.70;;;1.50;;
42364;SDS011;28498;54.400;18.566;2023-04-06T12:14:57;3.58;;;1.40;;
42364;SDS011;28498;54.400;18.566;2023-04-06T12:17:25;6.28;;;1.52;;
42364;SDS011;28498;54.400;18.566;2023-04-06T12:19:52;8.27;;;2.22;;
42364;SDS011;28498;54.400;18.566;2023-04-06T12:22:19;5.00;;;2.45;;
42364;SDS011;28498;54.400;18.566;2023-04-06T12:24:46;4.22;;;2.60;;
42364;SDS011;28498;54.400;18.566;2023-04-06T12:27:13;4.50;;;1.60;;
42364;SDS011;28498;54.400;18.566;2023-04-06T12:29:40;2.40;;;1.10;;
42364;SDS011;28498;54.400;18.566;2023-04-06T12:32:08;2.60;;;1.00;;
42364;SDS011;28498;54.400;18.566;2023-04-06T12:34:35;3.15;;;1.02;;
42364;SDS011;28498;54.400;18.566;2023-04-06T12:37:02;3.30;;;1.27;;
42364;SDS011;28498;54.400;18.566;2023-04-06T12:39:29;4.35;;;1.60;;
42364;SDS011;28498;54.400;18.566;2023-04-06T12:41:56;2.58;;;1.00;;
42364;SDS011;28498;54.400;18.566;2023-04-06T12:44:23;4.63;;;1.10;;
42364;SDS011;28498;54.400;18.566;2023-04-06T12:46:52;5.05;;;1.45;;
42364;SDS011;28498;54.400;18.566;2023-04-06T12:49:19;4.28;;;2.20;;
42364;SDS011;28498;54.400;18.566;2023-04-06T12:51:46;5.38;;;2.45;;
42364;SDS011;28498;54.400;18.566;2023-04-06T12:54:13;3.50;;;1.13;;
42364;SDS011;28498;54.400;18.566;2023-04-06T12:56:40;1.95;;;0.90;;
42364;SDS011;28498;54.400;18.566;2023-04-06T12:59:07;2.42;;;0.82;;
42364;SDS011;28498;54.400;18.566;2023-04-06T13:01:34;4.45;;;1.45;;
42364;SDS011;28498;54.400;18.566;2023-04-06T13:04:01;2.92;;;1.02;;
42364;SDS011;28498;54.400;18.566;2023-04-06T13:06:28;2.58;;;0.95;;
42364;SDS011;28498;54.400;18.566;2023-04-06T13:08:56;4.10;;;1.85;;
42364;SDS011;28498;54.400;18.566;2023-04-06T13:11:25;4.18;;;1.42;;
42364;SDS011;28498;54.400;18.566;2023-04-06T13:13:54;4.22;;;1.75;;
42364;SDS011;28498;54.400;18.566;2023-04-06T13:16:21;3.63;;;1.52;;
42364;SDS011;28498;54.400;18.566;2023-04-06T13:18:48;4.65;;;1.10;;
42364;SDS011;28498;54.400;18.566;2023-04-06T13:21:16;4.13;;;1.50;;
42364;SDS011;28498;54.400;18.566;2023-04-06T13:23:43;4.65;;;1.05;;
42364;SDS011;28498;54.400;18.566;2023-04-06T13:26:10;5.43;;;1.52;;
42364;SDS011;28498;54.400;18.566;2023-04-06T13:28:39;3.75;;;1.40;;
42364;SDS011;28498;54.400;18.566;2023-04-06T13:31:07;8.30;;;2.97;;
42364;SDS011;28498;54.400;18.566;2023-04-06T13:33:36;2.97;;;1.30;;
42364;SDS011;28498;54.400;18.566;2023-04-06T13:36:03;7.10;;;1.50;;
42364;SDS011;28498;54.400;18.566;2023-04-06T13:38:32;4.72;;;1.75;;
42364;SDS011;28498;54.400;18.566;2023-04-06T13:44:40;2.40;;;1.20;;
42364;SDS011;28498;54.400;18.566;2023-04-06T13:47:07;3.95;;;1.10;;
42364;SDS011;28498;54.400;18.566;2023-04-06T13:49:34;3.15;;;1.02;;
42364;SDS011;28498;54.400;18.566;2023-04-06T13:52:02;1.90;;;0.80;;
42364;SDS011;28498;54.400;18.566;2023-04-06T13:54:29;3.67;;;1.10;;
42364;SDS011;28498;54.400;18.566;2023-04-06T13:56:56;2.25;;;1.27;;
42364;SDS011;28498;54.400;18.566;2023-04-06T13:59:23;6.40;;;2.03;;
42364;SDS011;28498;54.400;18.566;2023-04-06T14:01:50;3.88;;;1.10;;
42364;SDS011;28498;54.400;18.566;2023-04-06T14:04:17;3.75;;;1.75;;
42364;SDS011;28498;54.400;18.566;2023-04-06T14:06:45;2.70;;;1.30;;
42364;SDS011;28498;54.400;18.566;2023-04-06T14:09:12;2.65;;;1.10;;
42364;SDS011;28498;54.400;18.566;2023-04-06T14:11:39;2.53;;;1.30;;
42364;SDS011;28498;54.400;18.566;2023-04-06T14:14:06;2.90;;;1.02;;
42364;SDS011;28498;54.400;18.566;2023-04-06T14:16:33;2.80;;;0.95;;
42364;SDS011;28498;54.400;18.566;2023-04-06T14:19:01;4.53;;;1.55;;
42364;SDS011;28498;54.400;18.566;2023-04-06T14:21:28;4.13;;;1.20;;
42364;SDS011;28498;54.400;18.566;2023-04-06T14:23:55;5.43;;;1.35;;
42364;SDS011;28498;54.400;18.566;2023-04-06T14:26:25;6.22;;;1.58;;
42364;SDS011;28498;54.400;18.566;2023-04-06T14:28:52;3.45;;;1.88;;
42364;SDS011;28498;54.400;18.566;2023-04-06T14:31:20;2.72;;;1.20;;
42364;SDS011;28498;54.400;18.566;2023-04-06T14:33:47;3.97;;;1.30;;
42364;SDS011;28498;54.400;18.566;2023-04-06T14:36:14;8.15;;;1.85;;
42364;SDS011;28498;54.400;18.566;2023-04-06T14:38:41;11.75;;;2.75;;
42364;SDS011;28498;54.400;18.566;2023-04-06T14:41:14;3.47;;;1.25;;
42364;SDS011;28498;54.400;18.566;2023-04-06T14:43:45;2.33;;;1.10;;
42364;SDS011;28498;54.400;18.566;2023-04-06T14:46:13;3.50;;;1.55;;